CST,Max TemperatureF,Mean TemperatureF,Min TemperatureF,Max Dew PointF,MeanDew PointF,Min DewpointF,Max Humidity, Mean Humidity, Min Humidity, Max Sea Level PressureIn, Mean Sea Level PressureIn, Min Sea Level PressureIn, Max VisibilityMiles, Mean VisibilityMiles, Min VisibilityMiles, Max Wind SpeedMPH, Mean Wind SpeedMPH, Max Gust SpeedMPH,PrecipitationIn, CloudCover, Events, WindDirDegrees
2014-1-1,0,-6,-11,-11,-17,-20,70,61,55,30.49,30.44,30.40,10,10,10,5,1,,0.00,7,,33
2014-1-2,3,-11,-25,-17,-23,-31,77,63,36,30.49,30.43,30.32,10,10,10,6,1,,0.00,0,,331
2014-1-3,26,2,-23,23,-1,-31,93,75,55,30.32,29.78,29.38,10,7,2,18,6,23,0.02,7,Snow,170
2014-1-4,30,12,-5,28,4,-13,93,69,52,30.24,29.87,29.35,10,9,2,22,10,31,0.00,3,Snow,317
2014-1-5,-5,-14,-23,-15,-22,-33,77,64,52,30.36,30.30,30.24,10,10,7,15,6,22,0.00,1,,310
2014-1-6,-13,-18,-23,-24,-29,-35,69,59,49,30.25,30.19,30.10,10,10,5,14,8,18,0.00,3,,284
2014-1-7,1,-12,-25,-9,-20,-33,84,68,55,30.23,30.12,30.07,10,10,2,10,3,,0.00,2,,249
2014-1-8,1,-12,-25,-11,-20,-33,77,68,55,30.43,30.38,30.24,10,10,10,7,1,,0.00,0,,273
2014-1-9,17,-4,-25,12,-3,-33,93,73,57,30.38,30.12,29.88,10,10,7,13,4,18,0.00,4,,163
2014-1-10,28,22,17,27,22,14,100,93,86,29.85,29.65,29.48,5,2,0,13,8,17,0.00,8,Fog,174
2014-1-11,30,24,17,27,23,14,100,88,74,29.64,29.55,29.45,10,7,2,15,4,20,0.00,5,,277
2014-1-12,35,27,19,30,25,18,93,84,75,29.60,29.43,29.33,10,9,5,8,4,,0.00,4,,202
2014-1-13,32,24,17,28,18,10,87,73,55,29.64,29.58,29.47,10,10,10,15,6,24,0.00,5,,284
2014-1-14,21,14,5,18,8,0,93,74,58,30.11,29.85,29.54,10,7,1,16,8,23,0.02,5,Snow,344
2014-1-15,19,6,-7,16,2,-13,86,78,62,30.12,29.83,29.33,10,9,2,15,7,22,0.00,6,Snow,210
2014-1-16,32,19,6,28,9,-2,93,72,57,29.87,29.56,29.30,10,8,2,28,10,37,0.00,8,Snow,308
2014-1-17,14,6,-2,1,-3,-8,79,66,52,30.03,29.94,29.78,10,10,10,15,4,25,0.00,3,,333
2014-1-18,21,14,6,12,7,1,92,72,54,29.91,29.77,29.61,10,7,1,8,0,,0.04,5,Snow,122
2014-1-19,33,25,17,27,21,12,93,81,65,29.70,29.54,29.43,10,10,7,8,0,,0.00,4,,319
2014-1-20,26,10,-7,21,-3,-22,86,59,40,30.44,30.09,29.69,10,10,4,10,6,18,0.00,4,Snow,5
2014-1-21,0,-11,-22,-6,-16,-27,85,68,54,30.44,30.25,29.97,10,8,2,8,3,,0.00,4,Snow,202
2014-1-22,5,-1,-9,0,-11,-18,78,65,51,30.48,30.13,29.93,10,6,0,23,8,32,0.00,5,Snow,328
2014-1-23,-4,-11,-18,-9,-19,-26,78,66,54,30.68,30.52,30.09,10,10,7,14,8,20,0.00,0,,270
2014-1-24,32,15,-2,25,14,-8,86,73,45,30.06,29.62,29.45,10,9,1,24,11,32,0.00,7,Snow,260
2014-1-25,15,8,0,-4,-10,-15,78,52,34,29.87,29.74,29.54,10,8,1,23,15,33,0.00,2,Snow,300
2014-1-26,14,4,-7,5,-5,-18,85,71,53,30.02,29.56,29.35,10,4,0,25,8,37,0.03,7,Snow,320
2014-1-27,-5,-12,-18,-22,-24,-27,64,55,45,30.35,30.27,30.05,10,9,2,20,12,29,0.00,0,Snow,295
2014-1-28,-2,-14,-25,-13,-21,-33,77,65,50,30.32,30.19,30.01,10,10,7,13,5,21,0.00,1,,252
2014-1-29,24,2,-20,14,-3,-26,84,65,43,30.01,29.76,29.55,10,10,5,14,5,23,0.00,0,,200
2014-1-30,19,7,-7,12,1,-17,85,65,48,30.02,29.71,29.53,10,7,0,16,6,23,0.02,5,Snow,331
2014-1-31,6,-8,-22,-6,-15,-27,84,67,51,30.10,30.03,29.98,10,10,7,12,3,,0.00,0,,222